sensor_id;sensor_type;location;lat;lon;timestamp;P1;durP1;ratioP1;P2;durP2;ratioP2
17606;SDS011;8922;52.240;20.980;2022-08-19T00:00:28;10.63;;;6.95;;
17606;SDS011;8922;52.240;20.980;2022-08-19T00:02:55;8.20;;;6.22;;
17606;SDS011;8922;52.240;20.980;2022-08-19T00:05:22;7.80;;;6.75;;
17606;SDS011;8922;52.240;20.980;2022-08-19T00:07:49;9.25;;;6.68;;
17606;SDS011;8922;52.240;20.980;2022-08-19T00:10:17;9.35;;;6.05;;
17606;SDS011;8922;52.240;20.980;2022-08-19T00:12:44;12.20;;;6.60;;
17606;SDS011;8922;52.240;20.980;2022-08-19T00:15:15;12.52;;;6.53;;
17606;SDS011;8922;52.240;20.980;2022-08-19T00:17:43;9.75;;;6.55;;
17606;SDS011;8922;52.240;20.980;2022-08-19T00:20:11;10.48;;;6.65;;
17606;SDS011;8922;52.240;20.980;2022-08-19T00:22:41;7.45;;;6.05;;
17606;SDS011;8922;52.240;20.980;2022-08-19T00:25:09;8.23;;;6.85;;
17606;SDS011;8922;52.240;20.980;2022-08-19T00:27:36;10.68;;;7.10;;
17606;SDS011;8922;52.240;20.980;2022-08-19T00:30:04;8.50;;;6.40;;
17606;SDS011;8922;52.240;20.980;2022-08-19T00:32:33;10.45;;;6.68;;
17606;SDS011;8922;52.240;20.980;2022-08-19T00:35:00;8.65;;;6.90;;
17606;SDS011;8922;52.240;20.980;2022-08-19T00:37:27;11.20;;;7.05;;
17606;SDS011;8922;52.240;20.980;2022-08-19T00:39:54;8.60;;;6.70;;
17606;SDS011;8922;52.240;20.980;2022-08-19T00:42:21;10.55;;;7.38;;
17606;SDS011;8922;52.240;20.980;2022-08-19T00:44:48;10.80;;;6.80;;
17606;SDS011;8922;52.240;20.980;2022-08-19T00:47:16;9.55;;;7.68;;
17606;SDS011;8922;52.240;20.980;2022-08-19T00:49:48;9.30;;;7.32;;
17606;SDS011;8922;52.240;20.980;2022-08-19T00:52:18;11.65;;;7.15;;
17606;SDS011;8922;52.240;20.980;2022-08-19T00:54:48;9.55;;;6.50;;
17606;SDS011;8922;52.240;20.980;2022-08-19T00:57:18;7.32;;;6.18;;
17606;SDS011;8922;52.240;20.980;2022-08-19T00:59:48;13.82;;;8.45;;
17606;SDS011;8922;52.240;20.980;2022-08-19T01:02:18;12.30;;;7.82;;
17606;SDS011;8922;52.240;20.980;2022-08-19T01:04:46;8.23;;;7.10;;
17606;SDS011;8922;52.240;20.980;2022-08-19T01:07:13;10.75;;;7.97;;
17606;SDS011;8922;52.240;20.980;2022-08-19T01:09:40;10.15;;;8.38;;
17606;SDS011;8922;52.240;20.980;2022-08-19T01:12:07;16.42;;;8.38;;
17606;SDS011;8922;52.240;20.980;2022-08-19T01:14:34;15.30;;;8.13;;
17606;SDS011;8922;52.240;20.980;2022-08-19T01:17:02;8.27;;;7.47;;
17606;SDS011;8922;52.240;20.980;2022-08-19T01:19:30;8.75;;;7.78;;
17606;SDS011;8922;52.240;20.980;2022-08-19T01:22:02;9.70;;;7.30;;
17606;SDS011;8922;52.240;20.980;2022-08-19T01:24:35;14.18;;;9.07;;
17606;SDS011;8922;52.240;20.980;2022-08-19T01:27:03;9.68;;;8.68;;
17606;SDS011;8922;52.240;20.980;2022-08-19T01:29:30;9.40;;;8.27;;
17606;SDS011;8922;52.240;20.980;2022-08-19T01:31:57;11.65;;;8.05;;
17606;SDS011;8922;52.240;20.980;2022-08-19T01:34:26;11.82;;;8.50;;
17606;SDS011;8922;52.240;20.980;2022-08-19T01:36:53;10.98;;;8.32;;
17606;SDS011;8922;52.240;20.980;2022-08-19T01:39:21;12.55;;;8.52;;
17606;SDS011;8922;52.240;20.980;2022-08-19T01:41:50;11.60;;;8.30;;
17606;SDS011;8922;52.240;20.980;2022-08-19T01:44:20;11.48;;;7.65;;
17606;SDS011;8922;52.240;20.980;2022-08-19T01:46:50;13.18;;;9.85;;
17606;SDS011;8922;52.240;20.980;2022-08-19T01:49:18;15.50;;;8.07;;
17606;SDS011;8922;52.240;20.980;2022-08-19T01:51:47;9.10;;;7.95;;
17606;SDS011;8922;52.240;20.980;2022-08-19T01:54:15;12.85;;;9.43;;
17606;SDS011;8922;52.240;20.980;2022-08-19T01:56:43;13.50;;;9.18;;
17606;SDS011;8922;52.240;20.980;2022-08-19T01:59:13;10.52;;;8.32;;
17606;SDS011;8922;52.240;20.980;2022-08-19T02:01:43;12.20;;;8.52;;
17606;SDS011;8922;52.240;20.980;2022-08-19T02:04:10;11.02;;;7.90;;
17606;SDS011;8922;52.240;20.980;2022-08-19T02:06:37;11.35;;;8.93;;
17606;SDS011;8922;52.240;20.980;2022-08-19T02:09:04;10.23;;;8.85;;
17606;SDS011;8922;52.240;20.980;2022-08-19T02:11:33;11.95;;;8.73;;
17606;SDS011;8922;52.240;20.980;2022-08-19T02:14:02;8.52;;;7.65;;
17606;SDS011;8922;52.240;20.980;2022-08-19T02:16:32;14.88;;;8.88;;
17606;SDS011;8922;52.240;20.980;2022-08-19T02:18:58;10.43;;;8.25;;
17606;SDS011;8922;52.240;20.980;2022-08-19T02:21:26;11.15;;;9.07;;
17606;SDS011;8922;52.240;20.980;2022-08-19T02:23:54;14.85;;;9.63;;
17606;SDS011;8922;52.240;20.980;2022-08-19T02:26:21;11.25;;;8.27;;
17606;SDS011;8922;52.240;20.980;2022-08-19T02:28:48;11.52;;;10.25;;
17606;SDS011;8922;52.240;20.980;2022-08-19T02:31:15;15.02;;;9.82;;
17606;SDS011;8922;52.240;20.980;2022-08-19T02:33:46;16.65;;;10.35;;
17606;SDS011;8922;52.240;20.980;2022-08-19T02:36:14;12.77;;;9.07;;
17606;SDS011;8922;52.240;20.980;2022-08-19T02:38:42;13.35;;;10.32;;
17606;SDS011;8922;52.240;20.980;2022-08-19T02:41:11;12.95;;;9.43;;
17606;SDS011;8922;52.240;20.980;2022-08-19T02:43:39;11.57;;;9.05;;
17606;SDS011;8922;52.240;20.980;2022-08-19T02:46:17;15.50;;;10.10;;
17606;SDS011;8922;52.240;20.980;2022-08-19T02:48:47;12.40;;;9.13;;
17606;SDS011;8922;52.240;20.980;2022-08-19T02:51:15;11.05;;;9.25;;
17606;SDS011;8922;52.240;20.980;2022-08-19T02:53:43;10.40;;;8.07;;
17606;SDS011;8922;52.240;20.980;2022-08-19T02:56:10;16.20;;;9.68;;
17606;SDS011;8922;52.240;20.980;2022-08-19T02:58:37;10.50;;;8.95;;
17606;SDS011;8922;52.240;20.980;2022-08-19T03:01:04;11.15;;;8.82;;
17606;SDS011;8922;52.240;20.980;2022-08-19T03:03:30;15.98;;;9.68;;
17606;SDS011;8922;52.240;20.980;2022-08-19T03:06:06;11.48;;;8.98;;
17606;SDS011;8922;52.240;20.980;2022-08-19T03:08:37;13.05;;;10.20;;
17606;SDS011;8922;52.240;20.980;2022-08-19T03:11:04;10.65;;;9.15;;
17606;SDS011;8922;52.240;20.980;2022-08-19T03:13:31;12.00;;;9.38;;
17606;SDS011;8922;52.240;20.980;2022-08-19T03:15:58;14.73;;;10.00;;
17606;SDS011;8922;52.240;20.980;2022-08-19T03:18:25;11.07;;;9.15;;
17606;SDS011;8922;52.240;20.980;2022-08-19T03:20:52;12.18;;;9.57;;
17606;SDS011;8922;52.240;20.980;2022-08-19T03:23:21;11.50;;;8.57;;
17606;SDS011;8922;52.240;20.980;2022-08-19T03:25:49;13.20;;;9.85;;
17606;SDS011;8922;52.240;20.980;2022-08-19T03:28:17;13.23;;;9.60;;
17606;SDS011;8922;52.240;20.980;2022-08-19T03:30:54;11.50;;;9.23;;
17606;SDS011;8922;52.240;20.980;2022-08-19T03:33:23;13.45;;;9.98;;
17606;SDS011;8922;52.240;20.980;2022-08-19T03:36:04;11.48;;;9.60;;
17606;SDS011;8922;52.240;20.980;2022-08-19T03:38:35;13.40;;;9.18;;
17606;SDS011;8922;52.240;20.980;2022-08-19T03:41:03;14.10;;;9.25;;
17606;SDS011;8922;52.240;20.980;2022-08-19T03:43:33;10.95;;;8.77;;
17606;SDS011;8922;52.240;20.980;2022-08-19T03:46:01;10.45;;;8.88;;
17606;SDS011;8922;52.240;20.980;2022-08-19T03:48:30;10.70;;;8.73;;
17606;SDS011;8922;52.240;20.980;2022-08-19T03:50:57;10.02;;;9.02;;
17606;SDS011;8922;52.240;20.980;2022-08-19T03:53:25;10.60;;;9.32;;
17606;SDS011;8922;52.240;20.980;2022-08-19T03:55:54;12.40;;;9.18;;
17606;SDS011;8922;52.240;20.980;2022-08-19T03:58:22;12.38;;;8.98;;
17606;SDS011;8922;52.240;20.980;2022-08-19T04:00:48;12.30;;;8.32;;
17606;SDS011;8922;52.240;20.980;2022-08-19T04:03:15;12.00;;;9.05;;
17606;SDS011;8922;52.240;20.980;2022-08-19T04:05:45;11.23;;;8.93;;
17606;SDS011;8922;52.240;20.980;2022-08-19T04:08:12;11.48;;;9.05;;
17606;SDS011;8922;52.240;20.980;2022-08-19T04:10:43;12.95;;;9.90;;
17606;SDS011;8922;52.240;20.980;2022-08-19T04:13:11;10.60;;;9.25;;
17606;SDS011;8922;52.240;20.980;2022-08-19T04:15:38;9.15;;;8.20;;
17606;SDS011;8922;52.240;20.980;2022-08-19T04:18:07;11.85;;;8.63;;
17606;SDS011;8922;52.240;20.980;2022-08-19T04:20:38;11.07;;;8.75;;
17606;SDS011;8922;52.240;20.980;2022-08-19T04:23:09;11.77;;;8.85;;
17606;SDS011;8922;52.240;20.980;2022-08-19T04:25:37;11.73;;;8.80;;
17606;SDS011;8922;52.240;20.980;2022-08-19T04:28:05;10.88;;;9.27;;
17606;SDS011;8922;52.240;20.980;2022-08-19T04:30:39;10.27;;;8.60;;
17606;SDS011;8922;52.240;20.980;2022-08-19T04:33:07;11.65;;;9.32;;
17606;SDS011;8922;52.240;20.980;2022-08-19T04:35:35;11.68;;;8.85;;
17606;SDS011;8922;52.240;20.980;2022-08-19T04:38:03;11.98;;;8.90;;
17606;SDS011;8922;52.240;20.980;2022-08-19T04:40:30;11.63;;;8.77;;
17606;SDS011;8922;52.240;20.980;2022-08-19T04:43:15;11.63;;;9.10;;
17606;SDS011;8922;52.240;20.980;2022-08-19T04:45:43;10.05;;;8.85;;
17606;SDS011;8922;52.240;20.980;2022-08-19T04:48:11;10.20;;;8.77;;
17606;SDS011;8922;52.240;20.980;2022-08-19T04:50:39;14.38;;;8.57;;
17606;SDS011;8922;52.240;20.980;2022-08-19T04:53:07;12.00;;;8.35;;
17606;SDS011;8922;52.240;20.980;2022-08-19T04:55:37;18.70;;;8.45;;
17606;SDS011;8922;52.240;20.980;2022-08-19T04:58:05;16.30;;;9.52;;
17606;SDS011;8922;52.240;20.980;2022-08-19T05:00:31;11.27;;;8.38;;
17606;SDS011;8922;52.240;20.980;2022-08-19T05:03:00;12.60;;;7.85;;
17606;SDS011;8922;52.240;20.980;2022-08-19T05:05:27;8.93;;;7.60;;
17606;SDS011;8922;52.240;20.980;2022-08-19T05:07:54;11.18;;;7.53;;
17606;SDS011;8922;52.240;20.980;2022-08-19T05:10:20;13.50;;;8.07;;
17606;SDS011;8922;52.240;20.980;2022-08-19T05:12:47;8.88;;;7.97;;
17606;SDS011;8922;52.240;20.980;2022-08-19T05:15:14;10.05;;;7.60;;
17606;SDS011;8922;52.240;20.980;2022-08-19T05:17:41;10.88;;;7.15;;
17606;SDS011;8922;52.240;20.980;2022-08-19T05:20:29;10.48;;;7.07;;
17606;SDS011;8922;52.240;20.980;2022-08-19T05:23:13;11.25;;;8.00;;
17606;SDS011;8922;52.240;20.980;2022-08-19T05:25:40;10.90;;;7.30;;
17606;SDS011;8922;52.240;20.980;2022-08-19T05:28:08;8.32;;;7.53;;
17606;SDS011;8922;52.240;20.980;2022-08-19T05:30:34;10.38;;;7.68;;
17606;SDS011;8922;52.240;20.980;2022-08-19T05:33:01;10.63;;;7.60;;
17606;SDS011;8922;52.240;20.980;2022-08-19T05:35:29;10.05;;;8.13;;
17606;SDS011;8922;52.240;20.980;2022-08-19T05:37:56;10.55;;;7.50;;
17606;SDS011;8922;52.240;20.980;2022-08-19T05:40:23;10.90;;;8.07;;
17606;SDS011;8922;52.240;20.980;2022-08-19T05:42:50;14.07;;;8.43;;
17606;SDS011;8922;52.240;20.980;2022-08-19T05:45:18;10.27;;;7.82;;
17606;SDS011;8922;52.240;20.980;2022-08-19T05:47:46;14.02;;;7.97;;
17606;SDS011;8922;52.240;20.980;2022-08-19T05:50:14;15.15;;;8.35;;
17606;SDS011;8922;52.240;20.980;2022-08-19T05:52:43;12.10;;;7.20;;
17606;SDS011;8922;52.240;20.980;2022-08-19T05:55:10;8.90;;;7.78;;
17606;SDS011;8922;52.240;20.980;2022-08-19T05:57:37;12.23;;;7.25;;
17606;SDS011;8922;52.240;20.980;2022-08-19T06:00:05;10.75;;;7.63;;
17606;SDS011;8922;52.240;20.980;2022-08-19T06:02:35;13.80;;;8.88;;
17606;SDS011;8922;52.240;20.980;2022-08-19T06:05:02;11.68;;;7.78;;
17606;SDS011;8922;52.240;20.980;2022-08-19T06:07:31;12.90;;;8.05;;
17606;SDS011;8922;52.240;20.980;2022-08-19T06:10:00;10.38;;;6.97;;
17606;SDS011;8922;52.240;20.980;2022-08-19T06:12:26;10.65;;;7.85;;
17606;SDS011;8922;52.240;20.980;2022-08-19T06:14:56;13.02;;;7.82;;
17606;SDS011;8922;52.240;20.980;2022-08-19T06:17:23;11.85;;;7.53;;
17606;SDS011;8922;52.240;20.980;2022-08-19T06:19:51;10.18;;;7.22;;
17606;SDS011;8922;52.240;20.980;2022-08-19T06:22:18;10.70;;;7.20;;
17606;SDS011;8922;52.240;20.980;2022-08-19T06:24:44;12.85;;;7.50;;
17606;SDS011;8922;52.240;20.980;2022-08-19T06:27:12;10.65;;;7.63;;
17606;SDS011;8922;52.240;20.980;2022-08-19T06:29:40;13.35;;;7.35;;
17606;SDS011;8922;52.240;20.980;2022-08-19T06:32:08;9.60;;;7.25;;
17606;SDS011;8922;52.240;20.980;2022-08-19T06:34:36;8.77;;;7.38;;
17606;SDS011;8922;52.240;20.980;2022-08-19T06:37:03;12.77;;;7.10;;
17606;SDS011;8922;52.240;20.980;2022-08-19T06:39:32;12.25;;;7.53;;
17606;SDS011;8922;52.240;20.980;2022-08-19T06:42:00;10.98;;;7.35;;
17606;SDS011;8922;52.240;20.980;2022-08-19T06:44:33;12.93;;;8.38;;
17606;SDS011;8922;52.240;20.980;2022-08-19T06:47:01;10.10;;;7.60;;
17606;SDS011;8922;52.240;20.980;2022-08-19T06:49:30;9.82;;;7.25;;
17606;SDS011;8922;52.240;20.980;2022-08-19T06:51:57;12.05;;;6.95;;
17606;SDS011;8922;52.240;20.980;2022-08-19T06:54:25;10.27;;;6.93;;
17606;SDS011;8922;52.240;20.980;2022-08-19T06:56:53;10.45;;;7.15;;
17606;SDS011;8922;52.240;20.980;2022-08-19T06:59:21;8.70;;;7.07;;
17606;SDS011;8922;52.240;20.980;2022-08-19T07:01:54;8.00;;;7.18;;
17606;SDS011;8922;52.240;20.980;2022-08-19T07:04:22;7.80;;;7.00;;
17606;SDS011;8922;52.240;20.980;2022-08-19T07:06:57;9.38;;;6.95;;
17606;SDS011;8922;52.240;20.980;2022-08-19T07:09:25;10.23;;;6.97;;
17606;SDS011;8922;52.240;20.980;2022-08-19T07:11:52;9.75;;;7.50;;
17606;SDS011;8922;52.240;20.980;2022-08-19T07:14:21;12.43;;;8.18;;
17606;SDS011;8922;52.240;20.980;2022-08-19T07:16:50;10.45;;;7.90;;
17606;SDS011;8922;52.240;20.980;2022-08-19T07:19:21;11.18;;;7.38;;
17606;SDS011;8922;52.240;20.980;2022-08-19T07:21:49;11.20;;;6.90;;
17606;SDS011;8922;52.240;20.980;2022-08-19T07:24:18;14.82;;;7.65;;
17606;SDS011;8922;52.240;20.980;2022-08-19T07:26:46;10.68;;;7.38;;
17606;SDS011;8922;52.240;20.980;2022-08-19T07:29:13;13.32;;;7.68;;
17606;SDS011;8922;52.240;20.980;2022-08-19T07:31:40;7.85;;;7.00;;
17606;SDS011;8922;52.240;20.980;2022-08-19T07:34:07;13.85;;;7.10;;
17606;SDS011;8922;52.240;20.980;2022-08-19T07:36:37;11.60;;;7.25;;
17606;SDS011;8922;52.240;20.980;2022-08-19T07:39:07;9.80;;;7.05;;
17606;SDS011;8922;52.240;20.980;2022-08-19T07:41:35;10.65;;;7.57;;
17606;SDS011;8922;52.240;20.980;2022-08-19T07:44:03;10.73;;;6.93;;
17606;SDS011;8922;52.240;20.980;2022-08-19T07:46:32;11.43;;;7.40;;
17606;SDS011;8922;52.240;20.980;2022-08-19T07:49:00;9.98;;;6.97;;
17606;SDS011;8922;52.240;20.980;2022-08-19T07:51:28;8.30;;;6.65;;
17606;SDS011;8922;52.240;20.980;2022-08-19T07:53:56;9.00;;;6.15;;
17606;SDS011;8922;52.240;20.980;2022-08-19T07:56:23;8.50;;;6.55;;
17606;SDS011;8922;52.240;20.980;2022-08-19T07:58:50;9.40;;;7.40;;
17606;SDS011;8922;52.240;20.980;2022-08-19T08:01:19;14.25;;;7.13;;
17606;SDS011;8922;52.240;20.980;2022-08-19T08:03:48;8.45;;;6.20;;
17606;SDS011;8922;52.240;20.980;2022-08-19T08:06:34;11.80;;;6.80;;
17606;SDS011;8922;52.240;20.980;2022-08-19T08:09:21;12.20;;;7.10;;
17606;SDS011;8922;52.240;20.980;2022-08-19T08:11:49;11.15;;;7.05;;
17606;SDS011;8922;52.240;20.980;2022-08-19T08:14:20;10.27;;;7.20;;
17606;SDS011;8922;52.240;20.980;2022-08-19T08:16:49;10.50;;;6.30;;
17606;SDS011;8922;52.240;20.980;2022-08-19T08:19:17;7.82;;;7.07;;
17606;SDS011;8922;52.240;20.980;2022-08-19T08:21:46;10.90;;;6.85;;
17606;SDS011;8922;52.240;20.980;2022-08-19T08:24:13;10.68;;;6.90;;
17606;SDS011;8922;52.240;20.980;2022-08-19T08:26:42;9.45;;;6.57;;
17606;SDS011;8922;52.240;20.980;2022-08-19T08:29:09;9.48;;;6.97;;
17606;SDS011;8922;52.240;20.980;2022-08-19T08:31:37;9.43;;;6.50;;
17606;SDS011;8922;52.240;20.980;2022-08-19T08:34:04;12.02;;;7.07;;
17606;SDS011;8922;52.240;20.980;2022-08-19T08:36:31;9.13;;;7.07;;
17606;SDS011;8922;52.240;20.980;2022-08-19T08:38:58;9.35;;;7.25;;
17606;SDS011;8922;52.240;20.980;2022-08-19T08:41:27;6.68;;;6.07;;
17606;SDS011;8922;52.240;20.980;2022-08-19T08:43:59;14.75;;;7.75;;
17606;SDS011;8922;52.240;20.980;2022-08-19T08:46:30;12.07;;;6.60;;
17606;SDS011;8922;52.240;20.980;2022-08-19T08:49:04;7.75;;;6.78;;
17606;SDS011;8922;52.240;20.980;2022-08-19T08:51:43;9.82;;;6.45;;
17606;SDS011;8922;52.240;20.980;2022-08-19T08:54:13;9.50;;;6.95;;
17606;SDS011;8922;52.240;20.980;2022-08-19T08:56:44;12.15;;;7.00;;
17606;SDS011;8922;52.240;20.980;2022-08-19T08:59:15;12.15;;;6.65;;
17606;SDS011;8922;52.240;20.980;2022-08-19T09:01:46;9.45;;;6.80;;
17606;SDS011;8922;52.240;20.980;2022-08-19T09:04:13;10.18;;;7.00;;
17606;SDS011;8922;52.240;20.980;2022-08-19T09:06:44;10.27;;;6.88;;
17606;SDS011;8922;52.240;20.980;2022-08-19T09:09:20;8.45;;;6.10;;
17606;SDS011;8922;52.240;20.980;2022-08-19T09:11:59;10.80;;;7.40;;
17606;SDS011;8922;52.240;20.980;2022-08-19T09:14:34;9.60;;;7.35;;
17606;SDS011;8922;52.240;20.980;2022-08-19T09:17:06;9.68;;;6.35;;
17606;SDS011;8922;52.240;20.980;2022-08-19T09:19:34;6.95;;;5.90;;
17606;SDS011;8922;52.240;20.980;2022-08-19T09:22:01;10.35;;;6.43;;
17606;SDS011;8922;52.240;20.980;2022-08-19T09:24:28;8.85;;;6.40;;
17606;SDS011;8922;52.240;20.980;2022-08-19T09:26:55;8.18;;;5.88;;
17606;SDS011;8922;52.240;20.980;2022-08-19T09:29:21;8.45;;;5.88;;
17606;SDS011;8922;52.240;20.980;2022-08-19T09:31:50;7.45;;;5.55;;
17606;SDS011;8922;52.240;20.980;2022-08-19T09:34:18;6.35;;;5.38;;
17606;SDS011;8922;52.240;20.980;2022-08-19T09:36:45;7.55;;;5.60;;
17606;SDS011;8922;52.240;20.980;2022-08-19T09:39:12;7.70;;;5.57;;
17606;SDS011;8922;52.240;20.980;2022-08-19T09:41:38;8.98;;;5.75;;
17606;SDS011;8922;52.240;20.980;2022-08-19T09:44:05;8.25;;;5.75;;
17606;SDS011;8922;52.240;20.980;2022-08-19T09:46:32;7.00;;;5.40;;
17606;SDS011;8922;52.240;20.980;2022-08-19T09:49:00;10.07;;;5.40;;
17606;SDS011;8922;52.240;20.980;2022-08-19T09:51:27;15.23;;;5.30;;
17606;SDS011;8922;52.240;20.980;2022-08-19T09:53:54;7.30;;;5.30;;
17606;SDS011;8922;52.240;20.980;2022-08-19T09:56:25;6.28;;;5.40;;
17606;SDS011;8922;52.240;20.980;2022-08-19T09:58:51;11.32;;;5.57;;
17606;SDS011;8922;52.240;20.980;2022-08-19T10:01:19;10.45;;;5.97;;
17606;SDS011;8922;52.240;20.980;2022-08-19T10:03:48;9.02;;;5.43;;
17606;SDS011;8922;52.240;20.980;2022-08-19T10:06:20;6.00;;;5.30;;
17606;SDS011;8922;52.240;20.980;2022-08-19T10:08:47;12.65;;;5.40;;
17606;SDS011;8922;52.240;20.980;2022-08-19T10:11:15;7.70;;;5.80;;
17606;SDS011;8922;52.240;20.980;2022-08-19T10:13:43;7.45;;;5.88;;
17606;SDS011;8922;52.240;20.980;2022-08-19T10:16:11;6.65;;;5.75;;
17606;SDS011;8922;52.240;20.980;2022-08-19T10:18:40;10.77;;;5.63;;
17606;SDS011;8922;52.240;20.980;2022-08-19T10:21:09;5.57;;;4.93;;
17606;SDS011;8922;52.240;20.980;2022-08-19T10:23:40;7.80;;;5.53;;
17606;SDS011;8922;52.240;20.980;2022-08-19T10:26:11;10.43;;;5.70;;
17606;SDS011;8922;52.240;20.980;2022-08-19T10:28:39;6.78;;;5.18;;
17606;SDS011;8922;52.240;20.980;2022-08-19T10:31:07;7.95;;;5.13;;
17606;SDS011;8922;52.240;20.980;2022-08-19T10:33:35;6.85;;;5.43;;
17606;SDS011;8922;52.240;20.980;2022-08-19T10:36:03;8.27;;;5.68;;
17606;SDS011;8922;52.240;20.980;2022-08-19T10:38:32;9.77;;;5.22;;
17606;SDS011;8922;52.240;20.980;2022-08-19T10:41:07;8.90;;;5.07;;
17606;SDS011;8922;52.240;20.980;2022-08-19T10:43:34;6.15;;;5.03;;
17606;SDS011;8922;52.240;20.980;2022-08-19T10:46:03;5.88;;;5.05;;
17606;SDS011;8922;52.240;20.980;2022-08-19T10:48:30;6.82;;;5.13;;
17606;SDS011;8922;52.240;20.980;2022-08-19T10:50:58;8.30;;;5.25;;
17606;SDS011;8922;52.240;20.980;2022-08-19T10:53:42;8.68;;;5.28;;
17606;SDS011;8922;52.240;20.980;2022-08-19T10:56:10;8.18;;;5.63;;
17606;SDS011;8922;52.240;20.980;2022-08-19T10:58:53;8.48;;;5.43;;
17606;SDS011;8922;52.240;20.980;2022-08-19T11:01:21;7.50;;;5.25;;
17606;SDS011;8922;52.240;20.980;2022-08-19T11:03:48;6.20;;;4.80;;
17606;SDS011;8922;52.240;20.980;2022-08-19T11:06:15;6.32;;;5.13;;
17606;SDS011;8922;52.240;20.980;2022-08-19T11:08:42;10.45;;;4.90;;
17606;SDS011;8922;52.240;20.980;2022-08-19T11:11:11;7.57;;;5.15;;
17606;SDS011;8922;52.240;20.980;2022-08-19T11:13:39;8.57;;;4.97;;
17606;SDS011;8922;52.240;20.980;2022-08-19T11:16:08;6.95;;;4.90;;
17606;SDS011;8922;52.240;20.980;2022-08-19T11:18:39;11.73;;;5.30;;
17606;SDS011;8922;52.240;20.980;2022-08-19T11:21:09;7.82;;;5.50;;
17606;SDS011;8922;52.240;20.980;2022-08-19T11:23:38;15.85;;;6.18;;
17606;SDS011;8922;52.240;20.980;2022-08-19T11:26:05;12.35;;;5.32;;
17606;SDS011;8922;52.240;20.980;2022-08-19T11:28:33;6.68;;;5.45;;
17606;SDS011;8922;52.240;20.980;2022-08-19T11:31:00;5.53;;;4.65;;
17606;SDS011;8922;52.240;20.980;2022-08-19T11:33:28;9.13;;;5.90;;
17606;SDS011;8922;52.240;20.980;2022-08-19T11:35:56;7.90;;;5.50;;
17606;SDS011;8922;52.240;20.980;2022-08-19T11:38:24;10.30;;;5.43;;
17606;SDS011;8922;52.240;20.980;2022-08-19T11:40:55;6.57;;;4.97;;
17606;SDS011;8922;52.240;20.980;2022-08-19T11:43:22;7.13;;;5.32;;
17606;SDS011;8922;52.240;20.980;2022-08-19T11:45:52;7.20;;;5.70;;
17606;SDS011;8922;52.240;20.980;2022-08-19T11:48:20;8.10;;;4.57;;
17606;SDS011;8922;52.240;20.980;2022-08-19T11:50:48;10.07;;;5.70;;
17606;SDS011;8922;52.240;20.980;2022-08-19T11:53:15;10.88;;;5.90;;
17606;SDS011;8922;52.240;20.980;2022-08-19T11:55:44;9.20;;;5.50;;
17606;SDS011;8922;52.240;20.980;2022-08-19T11:58:11;11.77;;;5.28;;
17606;SDS011;8922;52.240;20.980;2022-08-19T12:00:38;5.97;;;4.63;;
17606;SDS011;8922;52.240;20.980;2022-08-19T12:03:07;5.63;;;4.97;;
17606;SDS011;8922;52.240;20.980;2022-08-19T12:05:36;9.82;;;4.90;;
17606;SDS011;8922;52.240;20.980;2022-08-19T12:08:04;13.48;;;5.28;;
17606;SDS011;8922;52.240;20.980;2022-08-19T12:10:31;7.07;;;5.45;;
17606;SDS011;8922;52.240;20.980;2022-08-19T12:12:58;8.98;;;5.45;;
17606;SDS011;8922;52.240;20.980;2022-08-19T12:15:25;5.70;;;5.18;;
17606;SDS011;8922;52.240;20.980;2022-08-19T12:17:53;7.32;;;5.15;;
17606;SDS011;8922;52.240;20.980;2022-08-19T12:20:23;9.70;;;4.80;;
17606;SDS011;8922;52.240;20.980;2022-08-19T12:22:51;9.77;;;4.90;;
17606;SDS011;8922;52.240;20.980;2022-08-19T12:25:18;10.77;;;4.70;;
17606;SDS011;8922;52.240;20.980;2022-08-19T12:27:45;10.25;;;4.93;;
17606;SDS011;8922;52.240;20.980;2022-08-19T12:30:12;7.88;;;4.88;;
17606;SDS011;8922;52.240;20.980;2022-08-19T12:32:40;10.57;;;5.35;;
17606;SDS011;8922;52.240;20.980;2022-08-19T12:35:07;9.93;;;4.85;;
17606;SDS011;8922;52.240;20.980;2022-08-19T12:37:37;8.15;;;4.63;;
17606;SDS011;8922;52.240;20.980;2022-08-19T12:40:09;7.30;;;5.57;;
17606;SDS011;8922;52.240;20.980;2022-08-19T12:42:37;7.25;;;5.20;;
17606;SDS011;8922;52.240;20.980;2022-08-19T12:45:06;6.95;;;5.10;;
17606;SDS011;8922;52.240;20.980;2022-08-19T12:47:34;10.07;;;5.30;;
17606;SDS011;8922;52.240;20.980;2022-08-19T12:50:01;8.95;;;5.00;;
17606;SDS011;8922;52.240;20.980;2022-08-19T12:52:29;10.05;;;4.60;;
17606;SDS011;8922;52.240;20.980;2022-08-19T12:54:57;5.82;;;4.43;;
17606;SDS011;8922;52.240;20.980;2022-08-19T12:57:25;8.25;;;5.40;;
17606;SDS011;8922;52.240;20.980;2022-08-19T12:59:58;7.63;;;4.97;;
17606;SDS011;8922;52.240;20.980;2022-08-19T13:02:25;7.80;;;5.25;;
17606;SDS011;8922;52.240;20.980;2022-08-19T13:04:52;9.52;;;4.65;;
17606;SDS011;8922;52.240;20.980;2022-08-19T13:07:19;13.77;;;4.47;;
17606;SDS011;8922;52.240;20.980;2022-08-19T13:09:46;7.38;;;4.97;;
17606;SDS011;8922;52.240;20.980;2022-08-19T13:12:14;9.27;;;4.55;;
17606;SDS011;8922;52.240;20.980;2022-08-19T13:14:41;5.75;;;4.68;;
17606;SDS011;8922;52.240;20.980;2022-08-19T13:17:07;4.70;;;4.30;;
17606;SDS011;8922;52.240;20.980;2022-08-19T13:19:36;10.05;;;4.78;;
17606;SDS011;8922;52.240;20.980;2022-08-19T13:22:04;6.68;;;4.82;;
17606;SDS011;8922;52.240;20.980;2022-08-19T13:24:31;10.63;;;4.63;;
17606;SDS011;8922;52.240;20.980;2022-08-19T13:26:58;9.40;;;4.93;;
17606;SDS011;8922;52.240;20.980;2022-08-19T13:29:27;8.93;;;5.35;;
17606;SDS011;8922;52.240;20.980;2022-08-19T13:32:11;8.57;;;4.93;;
17606;SDS011;8922;52.240;20.980;2022-08-19T13:34:55;11.32;;;4.70;;
17606;SDS011;8922;52.240;20.980;2022-08-19T13:37:22;9.40;;;4.68;;
17606;SDS011;8922;52.240;20.980;2022-08-19T13:40:06;7.32;;;4.75;;
17606;SDS011;8922;52.240;20.980;2022-08-19T13:42:39;7.13;;;5.10;;
17606;SDS011;8922;52.240;20.980;2022-08-19T13:45:08;9.35;;;4.78;;
17606;SDS011;8922;52.240;20.980;2022-08-19T13:47:35;6.15;;;4.85;;
17606;SDS011;8922;52.240;20.980;2022-08-19T13:50:08;7.68;;;4.75;;
17606;SDS011;8922;52.240;20.980;2022-08-19T13:52:35;9.40;;;5.05;;
17606;SDS011;8922;52.240;20.980;2022-08-19T13:55:02;5.75;;;4.90;;
17606;SDS011;8922;52.240;20.980;2022-08-19T13:57:30;7.55;;;4.85;;
17606;SDS011;8922;52.240;20.980;2022-08-19T13:59:57;6.68;;;4.75;;
17606;SDS011;8922;52.240;20.980;2022-08-19T14:02:25;6.90;;;4.38;;
17606;SDS011;8922;52.240;20.980;2022-08-19T14:04:52;5.78;;;4.30;;
17606;SDS011;8922;52.240;20.980;2022-08-19T14:07:19;9.35;;;4.25;;
17606;SDS011;8922;52.240;20.980;2022-08-19T14:09:48;8.13;;;4.85;;
17606;SDS011;8922;52.240;20.980;2022-08-19T14:12:18;6.47;;;4.32;;
17606;SDS011;8922;52.240;20.980;2022-08-19T14:14:45;8.45;;;5.00;;
17606;SDS011;8922;52.240;20.980;2022-08-19T14:17:11;5.97;;;4.07;;
17606;SDS011;8922;52.240;20.980;2022-08-19T14:19:40;6.85;;;4.78;;
17606;SDS011;8922;52.240;20.980;2022-08-19T14:22:06;6.43;;;4.28;;
17606;SDS011;8922;52.240;20.980;2022-08-19T14:24:33;8.98;;;4.20;;
17606;SDS011;8922;52.240;20.980;2022-08-19T14:27:00;8.15;;;4.70;;
17606;SDS011;8922;52.240;20.980;2022-08-19T14:29:28;7.00;;;4.07;;
17606;SDS011;8922;52.240;20.980;2022-08-19T14:31:55;6.55;;;3.92;;
17606;SDS011;8922;52.240;20.980;2022-08-19T14:34:23;8.02;;;4.25;;
17606;SDS011;8922;52.240;20.980;2022-08-19T14:36:52;5.07;;;4.32;;
17606;SDS011;8922;52.240;20.980;2022-08-19T14:39:19;7.90;;;4.60;;
17606;SDS011;8922;52.240;20.980;2022-08-19T14:41:46;6.93;;;4.00;;
17606;SDS011;8922;52.240;20.980;2022-08-19T14:44:12;5.65;;;4.28;;
17606;SDS011;8922;52.240;20.980;2022-08-19T14:46:39;7.72;;;4.18;;
17606;SDS011;8922;52.240;20.980;2022-08-19T14:49:06;9.80;;;4.53;;